Time;durP1;ratioP1;P1;durP2;ratioP2;P2;SDS_P1;SDS_P2;PMS_P1;PMS_P2;Temp;Humidity;BMP_temperature;BMP_pressure;BME280_temperature;BME280_humidity;BME280_pressure;Samples;Min_cycle;Max_cycle;Signal;HPM_P1;HPM_P2
2022/07/06 00:01:04;;;;;;;1.77;1.20;;;14.90;99.90;;;;;;5054883;28;20231;-80
2022/07/06 00:03:51;;;;;;;2.23;1.50;;;14.90;99.90;;;;;;5048773;28;20230;-80
2022/07/06 00:06:36;;;;;;;3.17;1.50;;;14.80;99.90;;;;;;5053985;28;20741;-80
2022/07/06 00:09:20;;;;;;;3.13;1.83;;;14.80;99.90;;;;;;5043044;28;20685;-80
2022/07/06 00:12:05;;;;;;;5.03;2.63;;;14.80;99.90;;;;;;5049577;28;20195;-81
2022/07/06 00:14:50;;;;;;;4.70;1.70;;;14.70;99.90;;;;;;5045966;28;20218;-80
2022/07/06 00:17:35;;;;;;;1.90;1.50;;;14.70;99.90;;;;;;5043679;28;20199;-80
2022/07/06 00:20:19;;;;;;;3.17;1.53;;;14.60;99.90;;;;;;5052386;28;20219;-79
2022/07/06 00:23:04;;;;;;;4.50;1.57;;;14.60;99.90;;;;;;5044501;28;20234;-79
2022/07/06 00:25:48;;;;;;;4.50;1.67;;;14.60;99.90;;;;;;5045157;28;20214;-80
2022/07/06 00:28:33;;;;;;;2.97;1.47;;;14.50;99.90;;;;;;5047332;28;20613;-76
2022/07/06 00:31:17;;;;;;;1.97;1.53;;;14.50;99.90;;;;;;5036604;28;20318;-76
2022/07/06 00:34:01;;;;;;;1.97;1.33;;;14.40;99.90;;;;;;5043813;28;20211;-76
2022/07/06 00:36:45;;;;;;;3.73;1.70;;;14.40;99.90;;;;;;5032810;28;20195;-76
2022/07/06 00:39:29;;;;;;;4.03;1.40;;;14.40;99.90;;;;;;5041286;28;20297;-76
2022/07/06 00:42:13;;;;;;;4.07;1.40;;;14.30;99.90;;;;;;5047735;28;20291;-75
2022/07/06 00:44:58;;;;;;;1.97;1.50;;;14.30;99.90;;;;;;5045740;28;20210;-76
2022/07/06 00:47:42;;;;;;;3.90;1.53;;;14.30;99.90;;;;;;5041857;28;20225;-76
2022/07/06 00:50:28;;;;;;;3.23;1.40;;;14.20;99.90;;;;;;5042792;28;20187;-76
2022/07/06 00:53:13;;;;;;;4.80;2.30;;;14.20;99.90;;;;;;5036009;28;20206;-76
2022/07/06 00:55:57;;;;;;;5.90;1.50;;;14.10;99.90;;;;;;5039788;28;20191;-76
2022/07/06 00:58:42;;;;;;;3.93;1.63;;;14.10;99.90;;;;;;5045137;28;20206;-76
2022/07/06 01:01:26;;;;;;;3.13;1.60;;;14.00;99.90;;;;;;5046430;28;20253;-76
2022/07/06 01:04:11;;;;;;;5.20;1.40;;;14.10;99.90;;;;;;5047062;28;20305;-76
2022/07/06 01:06:56;;;;;;;2.60;1.57;;;14.00;99.90;;;;;;5050804;28;20832;-76
2022/07/06 01:09:40;;;;;;;1.83;1.50;;;13.90;99.90;;;;;;5042365;28;20214;-76
2022/07/06 01:12:24;;;;;;;3.47;1.97;;;13.90;99.90;;;;;;5042739;28;20231;-76
2022/07/06 01:15:12;;;;;;;1.80;1.70;;;13.90;99.90;;;;;;5042793;28;20234;-76
2022/07/06 01:17:57;;;;;;;2.43;1.53;;;13.80;99.90;;;;;;5037361;28;20267;-76
2022/07/06 01:20:41;;;;;;;3.97;1.57;;;13.80;99.90;;;;;;5041651;28;20210;-76
2022/07/06 01:23:25;;;;;;;2.07;1.60;;;13.70;99.90;;;;;;5042469;28;20214;-76
2022/07/06 01:26:14;;;;;;;4.63;1.90;;;13.70;99.90;;;;;;5040623;28;20605;-76
2022/07/06 01:28:59;;;;;;;2.90;1.70;;;13.70;99.90;;;;;;5042461;28;20263;-76
2022/07/06 01:31:48;;;;;;;7.40;2.07;;;13.60;99.90;;;;;;5038702;28;20215;-75
2022/07/06 01:34:33;;;;;;;4.47;1.80;;;13.60;99.90;;;;;;5044045;28;20214;-76
2022/07/06 01:37:17;;;;;;;3.23;1.40;;;13.60;99.90;;;;;;5049461;28;20271;-75
2022/07/06 01:40:04;;;;;;;2.70;1.57;;;13.60;99.90;;;;;;5046955;28;20194;-75
2022/07/06 01:42:48;;;;;;;3.23;1.53;;;13.60;99.90;;;;;;5043044;28;20198;-75
2022/07/06 01:45:33;;;;;;;3.40;1.30;;;13.60;99.90;;;;;;5045884;28;20194;-75
2022/07/06 01:48:17;;;;;;;3.90;1.60;;;13.60;99.90;;;;;;5044394;28;20174;-76
2022/07/06 01:51:01;;;;;;;4.87;1.60;;;13.60;99.90;;;;;;5047732;28;20243;-76
2022/07/06 01:53:46;;;;;;;2.60;1.70;;;13.60;99.90;;;;;;5047538;28;20245;-75
2022/07/06 01:56:31;;;;;;;1.90;1.70;;;13.60;99.90;;;;;;5032784;28;20202;-75
2022/07/06 01:59:15;;;;;;;6.23;2.00;;;13.60;99.90;;;;;;5039738;28;20707;-75
2022/07/06 02:01:59;;;;;;;2.63;1.57;;;13.60;99.90;;;;;;5037466;28;20211;-75
2022/07/06 02:04:43;;;;;;;4.63;1.50;;;13.60;99.90;;;;;;5041651;28;20262;-75
2022/07/06 02:07:27;;;;;;;3.13;1.63;;;13.60;99.90;;;;;;5041497;28;20198;-75
2022/07/06 02:10:11;;;;;;;2.23;1.53;;;13.60;99.90;;;;;;5044490;28;20221;-76
2022/07/06 02:12:55;;;;;;;2.43;1.53;;;13.60;99.90;;;;;;5046744;28;20340;-76
2022/07/06 02:15:39;;;;;;;2.90;1.67;;;13.50;99.90;;;;;;5034436;28;20229;-76
2022/07/06 02:18:23;;;;;;;4.87;1.83;;;13.50;99.90;;;;;;5040488;28;20225;-76
2022/07/06 02:21:08;;;;;;;2.27;1.80;;;13.50;99.90;;;;;;5043400;28;20209;-76
2022/07/06 02:23:53;;;;;;;4.73;2.23;;;13.50;99.90;;;;;;5047621;28;20281;-76
2022/07/06 02:26:37;;;;;;;3.37;1.70;;;13.50;99.90;;;;;;5041497;28;20206;-76
2022/07/06 02:29:21;;;;;;;3.97;1.53;;;13.60;99.90;;;;;;5046259;28;20233;-76
2022/07/06 02:32:05;;;;;;;3.10;1.80;;;13.50;99.90;;;;;;5038719;28;20203;-75
2022/07/06 02:34:50;;;;;;;2.50;1.87;;;13.50;99.90;;;;;;5036786;28;20268;-75
2022/07/06 02:37:34;;;;;;;3.63;1.90;;;13.50;99.90;;;;;;5043496;28;20225;-75
2022/07/06 02:40:18;;;;;;;4.33;1.90;;;13.50;99.90;;;;;;5040744;28;20233;-76
2022/07/06 02:43:02;;;;;;;3.67;1.73;;;13.50;99.90;;;;;;5037796;28;20261;-75
2022/07/06 02:45:46;;;;;;;4.17;1.90;;;13.50;99.90;;;;;;5046015;28;20289;-75
2022/07/06 02:48:31;;;;;;;2.43;1.60;;;13.50;99.90;;;;;;5042152;28;20191;-75
2022/07/06 02:51:15;;;;;;;4.83;1.80;;;13.50;99.90;;;;;;5037559;28;20222;-75
2022/07/06 02:53:59;;;;;;;3.90;1.73;;;13.50;99.90;;;;;;5047723;28;20222;-76
2022/07/06 02:56:47;;;;;;;6.13;1.97;;;13.50;99.90;;;;;;5038816;28;20219;-76
2022/07/06 02:59:32;;;;;;;7.07;1.70;;;13.50;99.90;;;;;;5038559;28;20257;-76
2022/07/06 03:02:17;;;;;;;5.43;2.03;;;13.50;99.90;;;;;;5043949;28;20222;-76
2022/07/06 03:05:01;;;;;;;2.17;1.63;;;13.50;99.90;;;;;;5038686;28;20214;-75
2022/07/06 03:07:46;;;;;;;6.17;2.00;;;13.50;99.90;;;;;;5043133;28;20190;-76
2022/07/06 03:10:30;;;;;;;3.77;1.90;;;13.50;99.90;;;;;;5040069;28;20237;-76
2022/07/06 03:13:14;;;;;;;5.80;2.13;;;13.50;99.90;;;;;;5049298;28;20214;-76
2022/07/06 03:15:58;;;;;;;3.47;1.97;;;13.50;99.90;;;;;;5041695;28;20268;-76
2022/07/06 03:18:42;;;;;;;7.90;1.80;;;13.50;99.90;;;;;;5037897;28;20192;-75
2022/07/06 03:21:30;;;;;;;3.67;2.10;;;13.50;99.90;;;;;;5042234;28;20210;-76
2022/07/06 03:24:14;;;;;;;3.43;1.90;;;13.50;99.90;;;;;;5040666;28;20219;-76
2022/07/06 03:26:58;;;;;;;3.47;1.97;;;13.50;99.90;;;;;;5049623;28;20215;-76
2022/07/06 03:29:42;;;;;;;3.90;2.07;;;13.50;99.90;;;;;;5044988;28;20241;-76
2022/07/06 03:32:27;;;;;;;3.63;1.70;;;13.50;99.90;;;;;;5043753;28;20238;-76
2022/07/06 03:35:11;;;;;;;3.43;2.00;;;13.50;99.90;;;;;;5047033;28;20727;-76
2022/07/06 03:37:55;;;;;;;3.63;1.80;;;13.50;99.90;;;;;;5044105;28;20190;-76
2022/07/06 03:40:39;;;;;;;4.50;2.30;;;13.50;99.90;;;;;;5047276;28;20264;-76
2022/07/06 03:43:23;;;;;;;6.20;1.97;;;13.50;99.90;;;;;;5041084;28;20275;-78
2022/07/06 03:46:07;;;;;;;4.00;1.77;;;13.50;99.90;;;;;;5048553;28;20240;-78
2022/07/06 03:48:52;;;;;;;2.47;1.67;;;13.50;99.90;;;;;;5052064;28;20278;-78
2022/07/06 03:51:37;;;;;;;3.67;1.97;;;13.50;99.90;;;;;;5045715;28;20283;-78
2022/07/06 03:54:22;;;;;;;4.83;1.83;;;13.50;99.90;;;;;;5047025;28;20743;-78
2022/07/06 03:57:06;;;;;;;3.70;1.60;;;13.60;99.90;;;;;;5048016;28;20276;-78
2022/07/06 03:59:50;;;;;;;5.20;1.90;;;13.50;99.90;;;;;;5044617;28;20233;-78
2022/07/06 04:02:35;;;;;;;4.33;1.70;;;13.50;99.90;;;;;;5043451;28;20274;-78
2022/07/06 04:05:21;;;;;;;3.90;2.07;;;13.50;99.90;;;;;;5048918;28;20190;-79
2022/07/06 04:08:09;;;;;;;8.03;2.30;;;13.50;99.90;;;;;;5049839;28;20182;-79
2022/07/06 04:10:54;;;;;;;5.30;1.87;;;13.50;99.90;;;;;;5041809;28;20235;-78
2022/07/06 04:13:39;;;;;;;8.40;1.93;;;13.50;99.90;;;;;;5042182;28;20211;-78
2022/07/06 04:16:23;;;;;;;3.20;1.87;;;13.50;99.90;;;;;;5035330;28;20194;-78
2022/07/06 04:19:07;;;;;;;3.97;2.10;;;13.50;99.90;;;;;;5044135;28;20263;-78
2022/07/06 04:21:51;;;;;;;4.83;1.73;;;13.50;99.90;;;;;;5046669;28;20206;-79
2022/07/06 04:24:35;;;;;;;5.43;2.10;;;13.50;99.90;;;;;;5043594;28;20231;-83
2022/07/06 04:27:20;;;;;;;6.47;2.40;;;13.60;99.90;;;;;;5047477;28;20183;-79
2022/07/06 04:30:05;;;;;;;6.43;2.47;;;13.60;99.90;;;;;;5047643;28;20604;-79
2022/07/06 04:32:50;;;;;;;3.80;2.07;;;13.60;99.90;;;;;;5041824;28;20206;-81
2022/07/06 04:35:34;;;;;;;4.93;2.10;;;13.60;99.90;;;;;;5041162;28;20203;-79
2022/07/06 04:38:18;;;;;;;6.97;2.20;;;13.60;99.90;;;;;;5042835;28;20607;-78
2022/07/06 04:41:02;;;;;;;3.23;1.90;;;13.60;99.90;;;;;;5038137;28;20235;-79
2022/07/06 04:43:47;;;;;;;2.80;1.80;;;13.60;99.90;;;;;;5038569;28;20698;-79
2022/07/06 04:46:31;;;;;;;2.37;1.70;;;13.60;99.90;;;;;;5035011;28;20194;-78
2022/07/06 04:49:15;;;;;;;4.07;1.80;;;13.70;99.90;;;;;;5049376;28;20183;-79
2022/07/06 04:51:59;;;;;;;5.67;1.90;;;13.70;99.90;;;;;;5041263;28;20662;-79
2022/07/06 04:54:43;;;;;;;5.07;2.07;;;13.70;99.90;;;;;;5041812;28;20215;-79
2022/07/06 04:57:29;;;;;;;8.37;2.10;;;13.70;99.90;;;;;;5038924;28;20267;-78
2022/07/06 05:00:13;;;;;;;5.13;1.80;;;13.70;99.90;;;;;;5038266;28;20234;-80
2022/07/06 05:02:58;;;;;;;3.90;2.10;;;13.80;99.90;;;;;;5045626;28;20262;-79
2022/07/06 05:05:42;;;;;;;5.77;1.80;;;13.90;99.90;;;;;;5045509;28;20704;-76
2022/07/06 05:08:29;;;;;;;3.03;1.90;;;13.90;99.90;;;;;;5042129;28;20203;-79
2022/07/06 05:11:15;;;;;;;3.10;2.00;;;13.90;99.90;;;;;;5038532;28;20192;-79
2022/07/06 05:13:59;;;;;;;5.97;1.83;;;14.00;99.90;;;;;;5042510;28;20258;-79
2022/07/06 05:16:43;;;;;;;6.97;1.80;;;14.00;99.90;;;;;;5040503;28;20194;-79
2022/07/06 05:19:27;;;;;;;3.13;1.77;;;14.00;99.90;;;;;;5037609;28;20190;-80
2022/07/06 05:22:11;;;;;;;8.13;2.57;;;14.10;99.90;;;;;;5043439;28;20330;-80
2022/07/06 05:24:55;;;;;;;3.80;2.40;;;14.10;99.90;;;;;;5035332;28;20234;-79
2022/07/06 05:27:39;;;;;;;4.87;1.80;;;14.10;99.90;;;;;;5043341;28;20183;-79
2022/07/06 05:30:23;;;;;;;3.50;1.80;;;14.20;99.90;;;;;;5042825;28;20293;-79
2022/07/06 05:33:08;;;;;;;6.30;1.53;;;14.20;99.90;;;;;;5043860;28;20251;-80
2022/07/06 05:35:52;;;;;;;2.87;1.73;;;14.30;99.90;;;;;;5042834;28;20666;-80
2022/07/06 05:38:36;;;;;;;4.93;2.10;;;14.30;99.90;;;;;;5044212;28;20275;-80
2022/07/06 05:41:21;;;;;;;4.67;1.70;;;14.30;99.90;;;;;;5037506;28;20215;-79
2022/07/06 05:44:05;;;;;;;3.93;1.73;;;14.40;99.90;;;;;;5047589;28;20222;-81
2022/07/06 05:46:49;;;;;;;3.23;1.93;;;14.40;99.90;;;;;;5046828;28;20234;-80
2022/07/06 05:52:36;;;;;;;4.30;2.10;;;14.50;99.90;;;;;;5052601;28;20633;-80
2022/07/06 05:55:21;;;;;;;8.53;1.70;;;14.50;99.90;;;;;;5046981;28;20202;-80
2022/07/06 05:58:06;;;;;;;3.40;1.57;;;14.60;99.90;;;;;;5053162;28;20272;-81
2022/07/06 06:00:50;;;;;;;5.10;1.57;;;14.60;99.90;;;;;;5044037;28;20218;-80
2022/07/06 06:03:35;;;;;;;8.20;1.80;;;14.70;99.90;;;;;;5051346;28;20228;-80
2022/07/06 06:06:19;;;;;;;2.97;1.77;;;14.70;99.90;;;;;;5047558;28;20184;-80
2022/07/06 06:09:04;;;;;;;6.63;1.77;;;14.80;99.90;;;;;;5057510;28;20666;-80
2022/07/06 06:11:48;;;;;;;4.97;2.87;;;14.80;99.90;;;;;;5042623;28;20214;-80
2022/07/06 06:14:32;;;;;;;3.63;1.60;;;14.90;99.90;;;;;;5047870;28;20234;-79
2022/07/06 06:17:16;;;;;;;8.53;1.50;;;14.90;99.90;;;;;;5045201;28;20192;-80
2022/07/06 06:20:00;;;;;;;4.23;1.70;;;15.00;99.90;;;;;;5041132;28;20195;-80
2022/07/06 06:22:59;;;;;;;4.67;1.67;;;15.00;99.90;;;;;;5047376;28;21877;-80
2022/07/06 06:25:43;;;;;;;4.73;1.90;;;15.10;99.90;;;;;;5051488;28;20182;-80
2022/07/06 06:28:27;;;;;;;3.00;1.63;;;15.10;99.90;;;;;;5053426;28;20187;-80
2022/07/06 06:31:11;;;;;;;5.03;1.53;;;15.20;99.90;;;;;;5047169;28;20218;-80
2022/07/06 06:33:57;;;;;;;2.93;1.53;;;15.30;99.90;;;;;;5044332;28;20502;-80
2022/07/06 06:36:42;;;;;;;4.57;1.97;;;15.30;99.90;;;;;;5057372;28;20212;-80
2022/07/06 06:39:26;;;;;;;9.70;2.43;;;15.40;99.90;;;;;;5051297;28;20201;-80
2022/07/06 06:42:11;;;;;;;18.17;3.40;;;15.40;99.90;;;;;;5053238;28;20269;-80
2022/07/06 06:44:55;;;;;;;7.53;1.77;;;15.50;99.90;;;;;;5047000;28;20259;-80
2022/07/06 06:47:40;;;;;;;7.23;1.53;;;15.50;99.90;;;;;;5052314;28;20240;-80
2022/07/06 06:50:24;;;;;;;5.27;1.90;;;15.60;99.90;;;;;;5046363;28;20215;-80
2022/07/06 06:53:08;;;;;;;5.30;1.73;;;15.70;99.90;;;;;;5053489;28;20248;-80
2022/07/06 06:55:52;;;;;;;2.63;1.30;;;15.80;99.90;;;;;;5052985;28;20182;-80
2022/07/06 06:58:36;;;;;;;2.97;1.50;;;15.80;99.90;;;;;;5041640;28;20275;-80
2022/07/06 07:01:20;;;;;;;5.60;1.40;;;15.90;99.90;;;;;;5049148;28;20252;-80
2022/07/06 07:04:06;;;;;;;4.43;1.13;;;15.90;99.90;;;;;;5046262;28;20273;-80
2022/07/06 07:06:50;;;;;;;5.03;1.50;;;16.00;99.90;;;;;;5046004;28;20278;-80
2022/07/06 07:09:34;;;;;;;7.47;2.00;;;16.00;99.90;;;;;;5054021;28;20706;-80
2022/07/06 07:12:18;;;;;;;3.93;1.10;;;16.10;99.90;;;;;;5048139;28;20181;-80
2022/07/06 07:15:02;;;;;;;4.37;1.30;;;16.20;99.90;;;;;;5054371;28;20241;-80
2022/07/06 07:17:47;;;;;;;3.53;1.13;;;16.30;99.90;;;;;;5043541;28;20221;-80
2022/07/06 07:20:33;;;;;;;1.73;1.03;;;16.40;99.90;;;;;;5048473;28;20232;-80
2022/07/06 07:23:17;;;;;;;6.13;1.30;;;16.40;99.90;;;;;;5052665;28;20209;-80
2022/07/06 07:26:01;;;;;;;3.07;1.10;;;16.60;99.90;;;;;;5059095;28;20193;-80
2022/07/06 07:28:46;;;;;;;3.50;0.90;;;16.70;99.90;;;;;;5050520;28;20185;-80
2022/07/06 07:31:31;;;;;;;4.50;0.80;;;16.70;99.90;;;;;;5048876;28;20210;-80
2022/07/06 07:34:16;;;;;;;6.43;0.90;;;16.70;99.90;;;;;;5053045;28;20215;-80
2022/07/06 07:37:00;;;;;;;1.60;0.50;;;16.70;99.90;;;;;;5056676;28;20313;-80
2022/07/06 07:39:44;;;;;;;6.20;0.97;;;16.80;99.90;;;;;;5059819;28;20649;-80
2022/07/06 07:42:28;;;;;;;9.77;0.97;;;16.70;99.90;;;;;;5060655;28;20327;-80
2022/07/06 07:45:12;;;;;;;3.10;0.60;;;16.80;99.90;;;;;;5060960;28;20178;-80
2022/07/06 07:47:56;;;;;;;3.30;1.07;;;16.80;99.90;;;;;;5050026;28;20198;-81
2022/07/06 07:50:41;;;;;;;3.40;0.70;;;16.90;99.90;;;;;;5052855;28;20197;-81
2022/07/06 07:53:25;;;;;;;9.07;0.87;;;17.00;99.90;;;;;;5052000;28;20255;-80
2022/07/06 07:56:09;;;;;;;2.73;0.90;;;17.00;99.90;;;;;;5055878;28;20221;-81
2022/07/06 07:58:53;;;;;;;4.17;0.87;;;17.10;99.90;;;;;;5049392;28;20254;-79
2022/07/06 08:01:38;;;;;;;6.87;0.73;;;17.20;99.90;;;;;;5050698;28;20305;-78
2022/07/06 08:04:22;;;;;;;2.07;0.73;;;17.20;99.90;;;;;;5047077;28;20253;-77
2022/07/06 08:07:07;;;;;;;2.10;0.53;;;17.20;99.90;;;;;;5048804;28;20266;-77
2022/07/06 08:09:51;;;;;;;1.63;0.60;;;17.20;99.90;;;;;;5050010;28;20197;-79
2022/07/06 08:12:35;;;;;;;4.53;0.50;;;17.30;99.90;;;;;;5066083;28;20216;-78
2022/07/06 08:15:19;;;;;;;2.00;0.50;;;17.30;99.90;;;;;;5064507;28;20194;-77
2022/07/06 08:18:04;;;;;;;4.00;0.50;;;17.30;99.90;;;;;;5050192;28;20692;-79
2022/07/06 08:20:48;;;;;;;5.67;1.07;;;17.40;99.90;;;;;;5059207;28;20245;-79
2022/07/06 08:23:34;;;;;;;5.90;0.50;;;17.50;99.90;;;;;;5054383;28;20221;-79
2022/07/06 08:26:19;;;;;;;5.47;1.10;;;17.50;99.90;;;;;;5054948;28;20214;-79
2022/07/06 08:29:03;;;;;;;7.13;0.83;;;17.60;99.90;;;;;;5061659;28;20216;-79
2022/07/06 08:31:48;;;;;;;4.77;0.67;;;17.60;99.90;;;;;;5053926;28;20213;-79
2022/07/06 08:34:32;;;;;;;2.30;0.50;;;17.60;99.90;;;;;;5062631;28;20260;-79
2022/07/06 08:37:17;;;;;;;5.73;0.70;;;17.60;99.90;;;;;;5052783;28;20252;-79
2022/07/06 08:40:01;;;;;;;6.83;0.87;;;17.60;99.90;;;;;;5050990;28;20213;-79
2022/07/06 08:42:49;;;;;;;3.13;0.50;;;17.70;99.90;;;;;;5053260;28;20217;-78
2022/07/06 08:45:35;;;;;;;3.50;0.40;;;17.70;99.90;;;;;;5060782;28;20194;-78
2022/07/06 08:48:22;;;;;;;2.93;0.53;;;17.60;99.90;;;;;;5058322;28;20181;-79
2022/07/06 08:51:07;;;;;;;3.83;0.50;;;17.70;99.90;;;;;;5054032;28;20335;-78
2022/07/06 08:53:51;;;;;;;3.10;1.07;;;17.70;99.90;;;;;;5056365;28;20216;-78
2022/07/06 08:56:36;;;;;;;0.73;0.40;;;17.80;99.90;;;;;;5056678;28;20264;-78
2022/07/06 08:59:20;;;;;;;3.03;0.60;;;17.80;99.90;;;;;;5055165;28;20182;-78
2022/07/06 09:02:05;;;;;;;1.77;0.70;;;17.90;99.90;;;;;;5055668;28;20234;-78
2022/07/06 09:04:52;;;;;;;2.97;0.70;;;17.90;99.90;;;;;;5060647;28;20237;-78
2022/07/06 09:07:36;;;;;;;0.67;0.40;;;17.90;99.90;;;;;;5055298;28;20194;-78
2022/07/06 09:10:21;;;;;;;1.67;0.50;;;17.90;99.90;;;;;;5056249;28;20190;-79
2022/07/06 09:13:08;;;;;;;1.37;0.53;;;17.90;99.90;;;;;;5059821;28;20248;-79
2022/07/06 09:15:52;;;;;;;1.63;0.40;;;17.90;99.90;;;;;;5057425;28;20190;-78
2022/07/06 09:18:38;;;;;;;3.23;0.60;;;17.90;99.90;;;;;;5056372;28;20270;-79
2022/07/06 09:21:31;;;;;;;3.57;0.60;;;18.00;99.90;;;;;;5055751;28;20226;-79
2022/07/06 09:24:16;;;;;;;3.80;0.60;;;18.00;99.90;;;;;;5058769;28;20241;-79
2022/07/06 09:27:00;;;;;;;2.87;0.70;;;18.10;99.90;;;;;;5056576;28;20209;-79
2022/07/06 09:29:45;;;;;;;2.20;0.50;;;18.20;99.90;;;;;;5057743;28;20276;-79
2022/07/06 09:32:30;;;;;;;6.37;0.60;;;18.30;99.90;;;;;;5064281;28;20280;-79
2022/07/06 09:35:38;;;;;;;36.33;5.83;;;18.30;99.90;;;;;;5058898;28;20206;-78
2022/07/06 09:38:26;;;;;;;2.93;0.70;;;18.40;99.90;;;;;;5051829;28;20716;-78
2022/07/06 09:41:10;;;;;;;3.17;0.63;;;18.40;99.90;;;;;;5048865;28;20266;-79
2022/07/06 09:43:54;;;;;;;2.57;0.50;;;18.40;99.90;;;;;;5050972;28;20280;-79
2022/07/06 09:46:41;;;;;;;8.60;0.87;;;18.40;99.90;;;;;;5047278;28;20194;-79
2022/07/06 09:49:26;;;;;;;8.70;1.30;;;18.50;99.90;;;;;;5047094;28;20199;-79
2022/07/06 09:52:11;;;;;;;3.00;0.80;;;18.50;99.90;;;;;;5045536;28;20185;-78
2022/07/06 09:54:55;;;;;;;2.57;0.70;;;18.50;99.90;;;;;;5045170;28;20268;-79
2022/07/06 09:57:39;;;;;;;2.57;0.50;;;18.60;99.90;;;;;;5055343;28;20206;-79
2022/07/06 10:00:23;;;;;;;2.03;0.50;;;18.60;99.90;;;;;;5052882;28;20253;-79
2022/07/06 10:03:08;;;;;;;3.23;0.60;;;18.70;99.90;;;;;;5045174;28;20216;-79
2022/07/06 10:05:53;;;;;;;3.90;0.60;;;18.60;99.90;;;;;;5050391;28;20210;-79
2022/07/06 10:08:38;;;;;;;4.57;0.80;;;18.70;99.90;;;;;;5042229;28;20187;-78
2022/07/06 10:11:24;;;;;;;1.37;0.50;;;18.70;99.90;;;;;;5063703;28;20193;-78
2022/07/06 10:14:10;;;;;;;5.33;0.63;;;18.60;99.90;;;;;;5064891;28;20290;-79
2022/07/06 10:17:00;;;;;;;3.13;0.67;;;18.60;99.90;;;;;;5043759;28;20195;-79
2022/07/06 10:19:46;;;;;;;5.40;0.67;;;18.70;99.90;;;;;;5052632;28;20217;-79
2022/07/06 10:22:31;;;;;;;4.93;0.90;;;18.70;99.90;;;;;;5053899;28;20275;-79
2022/07/06 10:25:19;;;;;;;3.70;0.53;;;18.70;99.90;;;;;;5060901;28;20271;-78
2022/07/06 10:28:14;;;;;;;2.43;0.70;;;18.80;99.90;;;;;;5049143;28;20210;-78
2022/07/06 10:30:59;;;;;;;9.03;0.90;;;18.80;99.90;;;;;;5053223;28;20185;-79
2022/07/06 10:33:44;;;;;;;13.47;1.10;;;18.80;99.90;;;;;;5045128;28;20240;-78
2022/07/06 10:36:28;;;;;;;5.07;0.50;;;18.90;99.90;;;;;;5068957;28;20190;-78
2022/07/06 10:42:53;;;;;;;4.13;0.73;;;19.00;99.90;;;;;;5063761;28;20225;-79
2022/07/06 10:45:38;;;;;;;3.73;0.50;;;19.00;99.90;;;;;;5048367;28;20289;-78
2022/07/06 10:48:23;;;;;;;1.83;0.47;;;19.10;99.90;;;;;;5050923;28;20186;-79
2022/07/06 10:51:08;;;;;;;2.42;0.60;;;19.10;99.90;;;;;;5052175;28;20328;-79
2022/07/06 10:54:04;;;;;;;1.35;0.50;;;19.10;99.90;;;;;;5044903;28;20209;-78
2022/07/06 10:56:50;;;;;;;1.60;0.40;;;19.20;99.90;;;;;;5041193;28;20194;-78
2022/07/06 10:59:34;;;;;;;4.15;0.45;;;19.20;99.90;;;;;;5047353;28;20304;-78
2022/07/06 11:02:19;;;;;;;5.23;0.40;;;19.20;99.90;;;;;;5060949;28;20217;-78
2022/07/06 11:05:14;;;;;;;3.90;0.60;;;19.30;99.90;;;;;;5051637;28;20214;-78
2022/07/06 11:08:01;;;;;;;7.85;0.82;;;19.30;99.90;;;;;;5065695;28;20252;-78
2022/07/06 11:10:49;;;;;;;7.40;0.65;;;19.20;99.90;;;;;;5064818;28;20189;-78
2022/07/06 11:13:41;;;;;;;1.70;0.60;;;19.20;99.90;;;;;;5051649;28;20271;-78
2022/07/06 11:16:27;;;;;;;3.70;0.53;;;19.20;99.90;;;;;;5062866;28;20187;-78
2022/07/06 11:19:13;;;;;;;4.03;0.80;;;19.30;99.90;;;;;;5052578;28;20282;-78
2022/07/06 11:22:09;;;;;;;4.07;0.50;;;19.30;99.90;;;;;;5046383;28;20260;-78
2022/07/06 11:24:55;;;;;;;2.22;0.50;;;19.40;99.90;;;;;;5047586;28;20280;-77
2022/07/06 11:27:42;;;;;;;3.35;0.50;;;19.50;99.90;;;;;;5049595;28;20313;-78
2022/07/06 11:30:26;;;;;;;4.95;0.85;;;19.50;99.90;;;;;;5051865;28;20190;-77
2022/07/06 11:33:27;;;;;;;2.88;0.50;;;19.60;99.90;;;;;;5044701;28;20257;-78
2022/07/06 11:36:22;;;;;;;4.78;0.80;;;19.60;99.90;;;;;;5047502;28;20192;-78
2022/07/06 11:39:07;;;;;;;4.07;0.63;;;19.80;99.90;;;;;;5054045;28;20233;-78
2022/07/06 11:41:51;;;;;;;1.23;0.55;;;19.80;99.90;;;;;;5044547;28;20681;-78
2022/07/06 11:44:36;;;;;;;2.22;0.57;;;19.70;99.90;;;;;;5046626;28;20727;-78
2022/07/06 11:47:21;;;;;;;3.22;0.55;;;19.70;99.90;;;;;;5045607;28;20198;-78
2022/07/06 11:50:06;;;;;;;1.30;0.40;;;19.70;99.90;;;;;;5061104;28;20313;-78
2022/07/06 11:52:51;;;;;;;4.55;0.70;;;19.60;99.90;;;;;;5045034;28;20221;-78
2022/07/06 11:55:35;;;;;;;5.25;0.88;;;19.60;99.90;;;;;;5047153;28;20185;-78
2022/07/06 11:58:23;;;;;;;4.97;0.63;;;19.60;99.90;;;;;;5047675;28;20196;-78
2022/07/06 12:01:09;;;;;;;4.65;0.68;;;19.50;99.90;;;;;;5050054;28;20221;-78
2022/07/06 12:03:58;;;;;;;3.50;0.60;;;19.60;99.90;;;;;;5045073;28;20253;-77
2022/07/06 12:06:44;;;;;;;4.20;0.80;;;19.60;99.90;;;;;;5065488;28;20270;-78
2022/07/06 12:09:32;;;;;;;2.80;0.60;;;19.70;99.90;;;;;;5050598;28;20241;-77
2022/07/06 12:12:17;;;;;;;3.90;0.80;;;19.80;99.90;;;;;;5048610;28;20213;-79
2022/07/06 12:15:01;;;;;;;2.97;0.60;;;19.90;99.90;;;;;;5045727;28;20291;-81
2022/07/06 12:17:48;;;;;;;7.20;0.50;;;20.00;99.90;;;;;;5045294;28;20194;-79
2022/07/06 12:20:32;;;;;;;1.10;0.47;;;20.00;99.90;;;;;;5050450;28;20198;-79
2022/07/06 12:23:17;;;;;;;2.08;0.40;;;20.10;99.90;;;;;;5045897;28;20204;-79
2022/07/06 12:26:01;;;;;;;1.77;0.90;;;20.10;99.90;;;;;;5048830;28;20189;-79
2022/07/06 12:28:58;;;;;;;4.57;0.70;;;20.20;99.90;;;;;;5050135;28;20186;-79
2022/07/06 12:31:52;;;;;;;1.95;0.60;;;20.10;99.90;;;;;;5046514;28;20205;-79
2022/07/06 12:34:36;;;;;;;9.80;0.75;;;20.10;99.90;;;;;;5063340;28;20225;-78
2022/07/06 12:37:20;;;;;;;2.63;0.55;;;20.10;99.90;;;;;;5062255;28;20222;-79
2022/07/06 12:40:14;;;;;;;3.22;0.60;;;20.20;99.90;;;;;;5047281;28;20206;-77
2022/07/06 12:42:58;;;;;;;2.05;0.52;;;20.30;99.90;;;;;;5051277;28;21281;-78
2022/07/06 12:45:45;;;;;;;3.97;0.65;;;20.30;99.90;;;;;;5065171;28;20316;-78
2022/07/06 12:48:29;;;;;;;3.75;0.50;;;20.30;99.90;;;;;;5051361;28;20193;-78
2022/07/06 12:51:13;;;;;;;2.88;0.55;;;20.30;99.90;;;;;;5048847;28;20181;-78
2022/07/06 12:54:28;;;;;;;2.75;0.45;;;20.20;99.90;;;;;;5046731;28;20738;-78
2022/07/06 12:57:21;;;;;;;3.17;0.50;;;20.30;99.90;;;;;;5048440;28;20186;-78
2022/07/06 13:00:06;;;;;;;2.60;0.60;;;20.30;99.90;;;;;;5050470;28;20702;-78
2022/07/06 13:02:56;;;;;;;3.35;0.63;;;20.50;99.90;;;;;;5049670;28;20275;-77
2022/07/06 13:05:48;;;;;;;2.28;0.52;;;20.60;99.90;;;;;;5050932;28;20225;-78
2022/07/06 13:08:32;;;;;;;2.28;0.40;;;20.70;99.90;;;;;;5044450;28;20206;-77
2022/07/06 13:11:17;;;;;;;3.17;0.50;;;20.80;99.90;;;;;;5045637;28;20193;-77
2022/07/06 13:14:00;;;;;;;10.45;0.93;;;20.90;99.90;;;;;;5042729;28;20225;-77
2022/07/06 13:16:46;;;;;;;2.13;0.60;;;20.80;99.90;;;;;;5046909;28;20280;-77
2022/07/06 13:19:30;;;;;;;5.05;0.52;;;20.70;99.90;;;;;;5047119;28;20194;-77
2022/07/06 13:22:14;;;;;;;2.13;0.40;;;20.70;99.90;;;;;;5045564;28;20205;-77
2022/07/06 13:24:59;;;;;;;4.22;0.52;;;20.70;99.90;;;;;;5045961;28;20222;-77
2022/07/06 13:27:43;;;;;;;2.25;0.40;;;20.80;99.90;;;;;;5049633;28;20178;-77
2022/07/06 13:30:28;;;;;;;0.95;0.40;;;20.80;99.90;;;;;;5049837;28;20198;-77
2022/07/06 13:33:12;;;;;;;1.65;0.30;;;20.90;99.90;;;;;;5043974;28;20226;-77
2022/07/06 13:35:56;;;;;;;3.25;0.30;;;21.10;99.90;;;;;;5045462;28;20256;-77
2022/07/06 13:38:40;;;;;;;1.83;0.20;;;21.10;99.90;;;;;;5062503;28;20270;-77
2022/07/06 13:41:24;;;;;;;2.30;0.40;;;21.10;99.90;;;;;;5049470;28;20209;-77
2022/07/06 13:44:09;;;;;;;2.88;0.50;;;21.10;99.90;;;;;;5044440;28;20217;-77
2022/07/06 13:46:53;;;;;;;2.72;0.40;;;21.10;99.90;;;;;;5043333;28;20177;-77
2022/07/06 13:49:37;;;;;;;1.83;0.40;;;21.20;99.90;;;;;;5044196;28;20213;-77
2022/07/06 13:52:21;;;;;;;2.03;0.40;;;21.30;99.90;;;;;;5042015;28;20222;-76
2022/07/06 13:55:06;;;;;;;4.18;0.40;;;21.30;99.90;;;;;;5046064;28;20226;-77
2022/07/06 13:57:51;;;;;;;1.38;0.47;;;21.30;99.90;;;;;;5062056;28;20277;-77
2022/07/06 14:00:35;;;;;;;0.88;0.30;;;21.20;99.90;;;;;;5046057;28;20209;-77
2022/07/06 14:03:21;;;;;;;2.90;0.47;;;21.30;99.90;;;;;;5050050;28;20252;-77
2022/07/06 14:06:07;;;;;;;3.33;0.43;;;21.30;99.90;;;;;;5051877;28;20197;-77
2022/07/06 14:08:51;;;;;;;1.70;0.30;;;21.30;99.90;;;;;;5046765;28;20186;-78
2022/07/06 14:11:35;;;;;;;3.03;0.50;;;21.30;99.90;;;;;;5049082;28;20226;-78
2022/07/06 14:14:20;;;;;;;4.63;0.40;;;21.30;99.90;;;;;;5048485;28;20217;-78
2022/07/06 14:17:04;;;;;;;1.20;0.70;;;21.30;99.90;;;;;;5062266;28;20251;-78
2022/07/06 14:19:49;;;;;;;1.08;0.35;;;21.10;99.90;;;;;;5049365;28;20213;-78
2022/07/06 14:22:33;;;;;;;3.83;0.40;;;21.10;99.90;;;;;;5047733;28;20841;-78
2022/07/06 14:25:17;;;;;;;4.65;0.77;;;21.00;99.90;;;;;;5060406;28;20194;-78